Time;durP1;ratioP1;P1;durP2;ratioP2;P2;SDS_P1;SDS_P2;PMS_P1;PMS_P2;Temp;Humidity;BMP_temperature;BMP_pressure;BME280_temperature;BME280_humidity;BME280_pressure;Samples;Min_cycle;Max_cycle;Signal;HPM_P1;HPM_P2
2022/07/20 00:02:54;;;;;;;12.68;3.70;;;;;;;20.35;57.73;96872.06;10402637;28;20188;-70
2022/07/20 00:07:54;;;;;;;8.93;3.22;;;;;;;20.31;57.90;96874.34;10406272;28;20240;-70
2022/07/20 00:12:55;;;;;;;6.68;3.50;;;;;;;20.38;57.71;96871.63;10408013;28;20220;-71
2022/07/20 00:17:55;;;;;;;7.00;3.72;;;;;;;20.35;57.43;96864.06;10407748;28;20608;-70
2022/07/20 00:22:56;;;;;;;7.93;3.40;;;;;;;20.39;57.23;96865.28;10408279;28;20191;-71
2022/07/20 00:27:57;;;;;;;8.38;2.95;;;;;;;20.31;57.50;96864.50;10407798;28;20262;-71
2022/07/20 00:32:57;;;;;;;7.57;3.50;;;;;;;20.33;57.37;96858.16;10407430;28;20247;-71
2022/07/20 00:37:57;;;;;;;7.15;3.28;;;;;;;20.30;57.23;96852.22;10407615;28;20193;-70
2022/07/20 00:42:58;;;;;;;7.80;3.20;;;;;;;20.33;57.15;96855.50;10407849;28;20288;-71
2022/07/20 00:47:58;;;;;;;4.35;2.78;;;;;;;20.31;56.97;96847.72;10406736;28;20193;-70
2022/07/20 00:52:59;;;;;;;6.18;2.85;;;;;;;20.42;56.46;96840.91;10407846;28;20227;-71
2022/07/20 00:58:00;;;;;;;7.88;3.17;;;;;;;20.36;56.96;96847.88;10405247;28;20197;-70
2022/07/20 01:03:00;;;;;;;11.60;3.55;;;;;;;20.25;57.44;96846.72;10407050;28;20193;-70
2022/07/20 01:08:01;;;;;;;5.43;2.70;;;;;;;20.35;56.83;96835.59;10406772;28;20233;-70
2022/07/20 01:13:01;;;;;;;8.68;3.13;;;;;;;20.59;56.02;96810.03;10406825;28;20700;-70
2022/07/20 01:18:01;;;;;;;6.43;3.10;;;;;;;20.48;56.36;96827.53;10415633;28;20275;-70
2022/07/20 01:23:02;;;;;;;5.80;3.17;;;;;;;20.31;57.22;96845.88;10413930;28;20192;-70
2022/07/20 01:28:09;;;;;;;6.93;3.55;;;;;;;20.30;57.35;96840.75;10414018;28;20272;-70
2022/07/20 01:33:09;;;;;;;5.45;3.30;;;;;;;20.25;57.27;96845.94;10413480;28;20219;-70
2022/07/20 01:38:10;;;;;;;6.93;3.67;;;;;;;20.31;57.33;96837.88;10413627;28;20192;-70
2022/07/20 01:43:10;;;;;;;7.57;3.70;;;;;;;20.27;57.31;96844.66;10413287;28;20763;-70
2022/07/20 01:48:11;;;;;;;7.38;3.22;;;;;;;20.15;57.75;96841.06;10412801;28;20192;-70
2022/07/20 01:53:11;;;;;;;12.27;4.15;;;;;;;20.10;57.98;96846.22;10413450;28;20552;-70
2022/07/20 01:58:11;;;;;;;7.78;3.53;;;;;;;20.07;57.99;96846.66;10412304;28;20192;-70
2022/07/20 02:03:12;;;;;;;7.60;3.25;;;;;;;20.27;56.89;96823.38;10413103;28;20198;-71
2022/07/20 02:08:12;;;;;;;6.53;3.08;;;;;;;20.38;56.42;96818.41;10412092;28;20255;-71
2022/07/20 02:13:13;;;;;;;7.63;3.70;;;;;;;20.36;56.44;96805.31;10412171;28;20303;-70
2022/07/20 02:18:14;;;;;;;4.55;3.08;;;;;;;20.30;56.78;96812.31;10412299;28;20200;-70
2022/07/20 02:23:15;;;;;;;12.68;3.42;;;;;;;20.39;56.11;96804.06;10411944;28;20200;-70
2022/07/20 02:28:15;;;;;;;6.88;3.10;;;;;;;20.30;56.76;96798.19;10410538;28;20220;-70
2022/07/20 02:33:15;;;;;;;10.32;3.78;;;;;;;20.11;57.50;96835.38;10411500;28;20223;-70
2022/07/20 02:38:16;;;;;;;9.13;3.58;;;;;;;19.98;57.78;96842.59;10410912;28;20188;-70
2022/07/20 02:43:16;;;;;;;6.85;3.17;;;;;;;19.86;58.18;96843.28;10411175;28;20247;-70
2022/07/20 02:48:16;;;;;;;8.77;3.50;;;;;;;19.78;58.20;96843.50;10410943;28;20227;-70
2022/07/20 02:53:17;;;;;;;8.73;2.97;;;;;;;19.66;59.08;96859.28;10410688;28;20282;-70
2022/07/20 02:58:17;;;;;;;6.43;3.38;;;;;;;19.51;59.65;96867.53;10410449;28;20197;-70
2022/07/20 03:03:18;;;;;;;9.10;3.45;;;;;;;19.43;59.71;96876.53;10408891;28;20250;-70
2022/07/20 03:08:18;;;;;;;6.30;3.75;;;;;;;19.49;59.51;96871.41;10404429;28;20236;-70
2022/07/20 03:13:18;;;;;;;9.27;3.50;;;;;;;19.50;59.43;96873.84;10402592;28;20235;-70
2022/07/20 03:18:19;;;;;;;6.50;3.42;;;;;;;19.57;59.35;96864.03;10402802;28;20192;-70
2022/07/20 03:23:20;;;;;;;10.02;3.50;;;;;;;19.40;60.04;96884.09;10402581;28;20667;-70
2022/07/20 03:28:20;;;;;;;6.30;3.47;;;;;;;19.23;60.66;96887.22;10402418;28;20197;-70
2022/07/20 03:33:20;;;;;;;10.98;3.95;;;;;;;19.16;60.92;96902.34;10402287;28;20231;-70
2022/07/20 03:38:21;;;;;;;12.85;3.90;;;;;;;19.20;60.71;96898.25;10401515;28;20236;-70
2022/07/20 03:43:25;;;;;;;7.10;3.95;;;;;;;19.11;61.40;96906.63;10402028;28;20188;-70
2022/07/20 03:48:25;;;;;;;8.15;3.42;;;;;;;18.97;61.84;96922.56;10401441;28;20255;-70
2022/07/20 03:53:25;;;;;;;10.82;3.78;;;;;;;18.86;62.62;96934.59;10401832;28;20204;-70
2022/07/20 03:58:26;;;;;;;7.45;3.15;;;;;;;18.74;63.41;96949.47;10401513;28;20176;-70
2022/07/20 04:03:26;;;;;;;10.35;3.67;;;;;;;18.68;63.73;96950.28;10405618;28;20202;-70
2022/07/20 04:08:26;;;;;;;8.93;3.83;;;;;;;18.46;65.05;96963.72;10407859;28;20724;-70
2022/07/20 04:13:27;;;;;;;7.07;3.60;;;;;;;18.25;65.84;96977.91;10408571;28;20220;-70
2022/07/20 04:18:27;;;;;;;8.90;3.55;;;;;;;18.12;67.11;96983.19;10407930;28;20195;-70
2022/07/20 04:23:28;;;;;;;13.05;3.88;;;;;;;18.06;67.52;96978.69;10407908;28;20254;-70
2022/07/20 04:28:28;;;;;;;6.53;3.65;;;;;;;18.08;67.90;96977.44;10407647;28;20204;-70
2022/07/20 04:33:29;;;;;;;11.20;3.50;;;;;;;18.16;67.73;96972.00;10408045;28;20385;-70
2022/07/20 04:38:29;;;;;;;10.27;4.03;;;;;;;18.47;67.64;96967.19;10407435;28;20211;-70
2022/07/20 04:43:29;;;;;;;6.13;3.38;;;;;;;18.67;67.13;96972.56;10407312;28;20185;-70
2022/07/20 04:48:30;;;;;;;7.90;3.67;;;;;;;18.75;67.19;96971.53;10408586;28;20197;-70
2022/07/20 04:53:30;;;;;;;9.70;3.90;;;;;;;18.78;67.69;96971.94;10415129;28;20230;-70
2022/07/20 04:58:31;;;;;;;8.75;4.00;;;;;;;18.94;68.31;96985.88;10415534;28;20219;-70
2022/07/20 05:03:31;;;;;;;12.15;4.00;;;;;;;19.05;67.98;96985.25;10415038;28;20189;-70
2022/07/20 05:08:31;;;;;;;8.32;3.75;;;;;;;19.16;67.93;96982.00;10414514;28;20243;-70
2022/07/20 05:13:32;;;;;;;11.75;4.13;;;;;;;19.32;68.05;96983.44;10414751;28;20212;-71
2022/07/20 05:18:33;;;;;;;7.05;4.30;;;;;;;19.57;68.20;96985.44;10413628;28;20196;-71
2022/07/20 05:23:33;;;;;;;13.10;4.55;;;;;;;19.86;68.23;96983.38;10413666;28;20192;-70
2022/07/20 05:28:33;;;;;;;22.80;9.02;;;;;;;20.27;67.09;96969.72;10413663;28;20200;-70
2022/07/20 05:33:35;;;;;;;11.23;5.50;;;;;;;20.76;66.67;96964.75;10420284;28;20477;-70
2022/07/20 05:38:35;;;;;;;12.15;4.10;;;;;;;21.26;64.63;96944.53;10437246;28;20203;-70
2022/07/20 05:43:36;;;;;;;11.95;3.83;;;;;;;21.71;63.66;96938.97;10413522;28;20196;-70
2022/07/20 05:48:36;;;;;;;10.07;4.20;;;;;;;22.13;61.98;96922.25;10412709;28;20207;-70
2022/07/20 05:53:36;;;;;;;9.07;4.00;;;;;;;22.63;60.73;96908.66;10413296;28;20593;-70
2022/07/20 05:58:37;;;;;;;11.52;3.65;;;;;;;23.19;59.58;96897.72;10413088;28;20192;-70
2022/07/20 06:03:38;;;;;;;10.48;3.67;;;;;;;23.79;58.81;96896.59;10409531;28;20246;-70
2022/07/20 06:08:38;;;;;;;9.00;3.72;;;;;;;24.34;55.39;96833.69;10406163;28;20301;-70
2022/07/20 06:13:38;;;;;;;5.55;3.08;;;;;;;24.95;53.54;96796.38;10394611;28;20744;-71
2022/07/20 06:18:39;;;;;;;4.32;3.20;;;;;;;25.73;52.73;96814.28;10410892;28;20727;-70
2022/07/20 06:23:39;;;;;;;8.73;2.90;;;;;;;26.45;50.12;96764.75;10412332;28;20916;-70
2022/07/20 06:28:40;;;;;;;7.25;2.75;;;;;;;28.00;46.34;96728.63;10413300;28;20653;-71
2022/07/20 06:33:40;;;;;;;6.60;2.67;;;;;;;28.77;41.80;96630.72;10413090;28;20219;-71
2022/07/20 06:38:40;;;;;;;12.23;2.60;;;;;;;29.50;39.83;96621.19;10412450;28;20451;-71
2022/07/20 06:43:41;;;;;;;3.23;2.20;;;;;;;30.33;38.87;96619.41;10413129;28;20435;-71
2022/07/20 06:48:41;;;;;;;6.37;2.30;;;;;;;30.42;36.57;96546.66;10412242;28;20482;-71
2022/07/20 06:53:41;;;;;;;6.27;1.80;;;;;;;30.04;35.90;96522.19;10408897;28;20487;-71
2022/07/20 06:58:42;;;;;;;4.03;2.20;;;;;;;30.64;36.57;96575.03;10404147;28;20462;-71
2022/07/20 07:03:42;;;;;;;4.93;2.22;;;;;;;30.66;35.70;96545.78;10407605;28;20545;-71
2022/07/20 07:08:43;;;;;;;12.17;2.33;;;;;;;29.50;36.96;96559.91;10408792;28;20643;-71
2022/07/20 07:13:43;;;;;;;2.40;1.85;;;;;;;29.89;36.14;96550.16;10408171;28;20517;-70
2022/07/20 07:18:43;;;;;;;8.40;1.95;;;;;;;30.07;35.57;96545.91;10399469;28;20189;-70
2022/07/20 07:23:49;;;;;;;3.90;1.73;;;;;;;30.31;35.14;96554.03;10407471;28;20664;-70
2022/07/20 07:35:12;;;;;;;5.18;2.03;;;;;;;30.13;34.12;96533.16;10407312;28;20545;-71
2022/07/20 07:40:12;;;;;;;3.90;1.80;;;;;;;30.14;34.40;96567.19;10407121;28;20193;-71
2022/07/20 07:45:13;;;;;;;2.33;1.77;;;;;;;29.92;34.74;96552.28;10407900;28;20201;-71
2022/07/20 07:50:14;;;;;;;4.10;2.10;;;;;;;30.08;35.00;96566.44;10407215;28;20860;-71
2022/07/20 07:55:15;;;;;;;6.78;1.90;;;;;;;30.58;34.60;96588.63;10406639;28;20450;-71
2022/07/20 08:00:15;;;;;;;7.00;1.80;;;;;;;31.15;34.10;96589.81;10403527;28;20200;-71
2022/07/20 08:05:16;;;;;;;4.28;1.50;;;;;;;31.30;32.60;96554.41;10405399;28;20765;-71
2022/07/20 08:10:16;;;;;;;2.85;1.65;;;;;;;30.86;33.15;96544.72;10404027;28;20269;-71
2022/07/20 08:15:16;;;;;;;5.47;2.20;;;;;;;31.06;33.39;96549.88;10406189;28;20196;-72
2022/07/20 08:20:21;;;;;;;3.00;1.83;;;;;;;31.03;32.11;96517.22;10398056;28;20439;-71
2022/07/20 08:25:22;;;;;;;6.28;2.00;;;;;;;30.56;33.36;96528.63;10405276;28;20882;-71
2022/07/20 08:30:23;;;;;;;3.70;2.00;;;;;;;30.58;33.43;96531.03;10413338;28;20311;-72
2022/07/20 08:35:23;;;;;;;5.90;2.00;;;;;;;30.63;33.00;96524.75;10413697;28;20291;-71
2022/07/20 08:40:25;;;;;;;2.38;1.63;;;;;;;30.95;32.41;96519.44;10413718;28;21040;-71
2022/07/20 08:45:26;;;;;;;3.38;2.10;;;;;;;30.91;32.86;96542.75;10412796;28;20656;-71
2022/07/20 08:50:28;;;;;;;5.05;2.05;;;;;;;31.52;31.73;96525.88;10414477;28;20224;-72
2022/07/20 08:55:28;;;;;;;7.82;1.95;;;;;;;30.85;32.31;96516.09;10413002;28;20204;-71
2022/07/20 09:00:29;;;;;;;2.67;1.90;;;;;;;31.59;32.08;96550.72;10414143;28;20184;-72
2022/07/20 09:05:34;;;;;;;8.15;2.00;;;;;;;32.22;31.45;96540.41;10413700;28;20195;-72
2022/07/20 09:10:37;;;;;;;4.93;2.13;;;;;;;32.66;31.29;96574.28;10412784;28;20258;-72
2022/07/20 09:22:31;;;;;;;5.63;1.90;;;;;;;31.91;31.92;96574.28;10479190;28;20651;-72
2022/07/20 09:27:33;;;;;;;3.75;1.90;;;;;;;31.53;32.52;96543.75;10492612;28;20191;-72
2022/07/20 09:32:48;;;;;;;4.80;1.70;;;;;;;31.76;32.40;96564.53;10491898;28;20714;-72
2022/07/20 09:37:49;;;;;;;6.40;2.35;;;;;;;31.49;32.43;96540.84;10486868;28;20195;-72
2022/07/20 09:42:50;;;;;;;13.02;2.38;;;;;;;31.19;32.61;96537.50;10450722;28;20373;-72
2022/07/20 09:48:05;;;;;;;4.77;1.73;;;;;;;32.71;31.49;96547.03;10450542;28;20195;-72
2022/07/20 09:53:07;;;;;;;4.18;2.20;;;;;;;32.43;32.14;96571.44;10431703;28;20485;-71
2022/07/20 09:58:08;;;;;;;5.68;2.35;;;;;;;32.62;31.88;96582.19;10450294;28;20192;-71
2022/07/20 10:03:12;;;;;;;7.78;2.65;;;;;;;31.74;32.82;96569.41;10460159;28;20599;-71
2022/07/20 10:08:13;;;;;;;4.78;2.20;;;;;;;32.33;31.19;96523.66;10464128;28;20644;-73
2022/07/20 10:13:13;;;;;;;4.05;2.33;;;;;;;32.57;31.50;96538.09;10457295;28;20223;-71
2022/07/20 10:18:14;;;;;;;6.82;2.13;;;;;;;33.11;30.87;96554.59;10462704;28;20183;-71
2022/07/20 10:23:14;;;;;;;6.83;2.27;;;;;;;33.51;28.46;96465.13;10480051;28;20183;-71
2022/07/20 10:28:23;;;;;;;10.15;2.53;;;;;;;32.63;30.49;96493.50;10449145;28;21122;-71
2022/07/20 10:33:25;;;;;;;4.72;2.10;;;;;;;33.48;29.42;96509.19;10448930;28;20285;-72
2022/07/20 10:38:27;;;;;;;6.82;2.05;;;;;;;32.94;30.48;96501.78;10447965;28;20230;-71
2022/07/20 10:43:27;;;;;;;8.73;2.05;;;;;;;33.28;29.64;96495.03;10448148;28;20188;-71
2022/07/20 10:48:28;;;;;;;8.73;2.17;;;;;;;33.66;30.41;96542.72;10447392;28;20188;-72
2022/07/20 10:53:30;;;;;;;4.40;2.27;;;;;;;33.93;28.57;96490.13;10446796;28;20472;-71
2022/07/20 10:58:33;;;;;;;3.53;2.30;;;;;;;34.04;29.56;96542.31;10445498;28;21234;-71
2022/07/20 11:03:45;;;;;;;4.03;2.08;;;;;;;32.59;29.56;96455.34;10449128;28;20206;-72
2022/07/20 11:08:55;;;;;;;6.28;2.40;;;;;;;32.41;29.81;96467.13;10449329;28;20591;-72
2022/07/20 11:13:55;;;;;;;5.00;2.83;;;;;;;32.30;30.14;96477.38;10431291;28;20224;-72
2022/07/20 11:19:00;;;;;;;7.03;2.30;;;;;;;32.99;31.09;96530.72;10420573;28;20211;-72
2022/07/20 11:24:01;;;;;;;5.65;2.78;;;;;;;33.05;30.83;96521.34;10406808;28;20189;-72
2022/07/20 11:29:01;;;;;;;6.93;2.30;;;;;;;33.17;31.04;96526.22;10435744;28;20191;-72
2022/07/20 11:34:02;;;;;;;4.22;2.00;;;;;;;33.64;29.14;96483.25;10448809;28;20342;-73
2022/07/20 11:39:05;;;;;;;3.83;1.95;;;;;;;33.90;29.02;96469.81;10447816;28;20675;-72
2022/07/20 11:44:08;;;;;;;7.57;2.20;;;;;;;33.61;30.05;96483.88;10430262;28;20543;-72
2022/07/20 11:49:13;;;;;;;3.65;2.40;;;;;;;33.02;30.51;96481.25;10428362;28;20202;-72
2022/07/20 11:54:19;;;;;;;6.18;2.33;;;;;;;33.33;28.64;96435.16;10447964;28;20215;-72
2022/07/20 11:59:21;;;;;;;2.97;2.00;;;;;;;33.59;28.25;96429.88;10448313;28;20192;-72
2022/07/20 12:04:21;;;;;;;4.93;2.00;;;;;;;33.52;27.77;96394.19;10447200;28;20278;-72
2022/07/20 12:09:29;;;;;;;6.18;2.08;;;;;;;33.66;27.45;96390.56;10428947;28;20292;-72
2022/07/20 12:14:37;;;;;;;6.32;2.58;;;;;;;33.50;29.17;96441.81;10426714;28;20224;-73
2022/07/20 12:19:42;;;;;;;5.50;2.10;;;;;;;33.55;28.57;96417.22;10443977;28;20218;-72
2022/07/20 12:24:55;;;;;;;6.47;2.17;;;;;;;33.57;29.21;96456.56;10444294;28;20702;-73
2022/07/20 12:29:56;;;;;;;6.85;2.20;;;;;;;33.97;28.15;96439.47;10443839;28;20674;-73
2022/07/20 12:34:58;;;;;;;9.88;2.67;;;;;;;34.95;28.06;96477.44;10444326;28;20293;-73
2022/07/20 12:39:58;;;;;;;5.72;2.55;;;;;;;35.02;27.79;96466.84;10443952;28;20210;-73
2022/07/20 12:45:05;;;;;;;4.33;2.57;;;;;;;35.10;28.09;96476.97;10444160;28;20198;-73
2022/07/20 12:50:05;;;;;;;8.18;2.70;;;;;;;34.88;26.92;96411.78;10442816;28;20483;-72
2022/07/20 12:55:06;;;;;;;7.68;2.42;;;;;;;35.23;27.71;96452.59;10444748;28;20188;-72
2022/07/20 13:00:07;;;;;;;9.57;2.72;;;;;;;35.24;28.17;96452.28;10443430;28;20243;-72
2022/07/20 13:05:08;;;;;;;7.70;2.25;;;;;;;34.72;28.45;96458.53;10442739;28;20265;-73
2022/07/20 13:10:08;;;;;;;8.02;2.40;;;;;;;35.71;26.72;96416.09;10444872;28;20289;-72
2022/07/20 13:15:09;;;;;;;8.57;2.28;;;;;;;36.29;27.36;96472.97;10466166;28;20213;-72
2022/07/20 13:20:10;;;;;;;7.40;2.30;;;;;;;35.30;27.82;96428.41;10469884;28;20182;-72
2022/07/20 13:25:10;;;;;;;5.95;2.40;;;;;;;33.35;27.92;96332.47;10463524;28;20199;-72
2022/07/20 13:30:11;;;;;;;4.65;1.90;;;;;;;34.58;29.63;96466.84;10464464;28;20218;-72
2022/07/20 13:35:11;;;;;;;4.10;2.17;;;;;;;34.05;28.06;96387.03;10493856;28;20743;-72
2022/07/20 13:40:12;;;;;;;4.43;1.73;;;;;;;34.20;28.61;96393.13;10494506;28;20187;-73
2022/07/20 13:45:12;;;;;;;3.90;1.83;;;;;;;35.13;26.45;96364.66;10494016;28;20437;-73
2022/07/20 13:50:13;;;;;;;5.30;2.33;;;;;;;35.49;25.62;96338.13;10493698;28;20765;-72
2022/07/20 13:55:13;;;;;;;8.52;2.40;;;;;;;35.46;26.98;96398.72;10483195;28;20819;-72
2022/07/20 14:00:14;;;;;;;5.73;1.60;;;;;;;35.82;24.91;96330.13;10451507;28;20184;-72
2022/07/20 14:05:14;;;;;;;6.70;1.75;;;;;;;34.39;26.66;96331.13;10451893;28;20438;-72
2022/07/20 14:10:15;;;;;;;3.70;1.83;;;;;;;36.77;25.18;96376.13;10451711;28;20246;-72
2022/07/20 14:15:15;;;;;;;7.77;2.10;;;;;;;37.75;23.51;96337.34;10451156;28;20589;-72
2022/07/20 14:20:15;;;;;;;5.23;2.20;;;;;;;37.24;24.49;96336.81;10451346;28;20458;-71
2022/07/20 14:25:16;;;;;;;4.00;1.80;;;;;;;37.69;24.03;96349.59;10450652;28;20442;-72
2022/07/20 14:30:16;;;;;;;8.07;2.43;;;;;;;35.38;25.59;96277.78;10450057;28;20477;-72
2022/07/20 14:35:17;;;;;;;5.38;2.20;;;;;;;37.02;24.30;96332.56;10450357;28;20536;-73
2022/07/20 14:40:17;;;;;;;3.57;1.80;;;;;;;37.81;24.02;96363.31;10450792;28;20643;-72
2022/07/20 14:45:17;;;;;;;4.57;1.80;;;;;;;37.10;24.17;96315.25;10450537;28;20817;-72
2022/07/20 14:50:18;;;;;;;11.93;2.37;;;;;;;36.06;25.13;96290.50;10454222;28;20675;-73
2022/07/20 14:55:18;;;;;;;5.00;2.03;;;;;;;37.06;24.18;96297.94;10468670;28;20795;-73
2022/07/20 15:00:19;;;;;;;4.73;1.33;;;;;;;36.37;24.18;96246.47;10467916;28;20203;-72
2022/07/20 15:05:20;;;;;;;4.35;1.73;;;;;;;36.19;24.43;96266.81;10465775;28;20449;-73
2022/07/20 15:10:20;;;;;;;5.47;2.00;;;;;;;35.57;26.67;96320.94;10465615;28;20230;-72
2022/07/20 15:15:20;;;;;;;5.67;2.20;;;;;;;36.96;25.17;96337.44;10468232;28;20279;-72
2022/07/20 15:20:21;;;;;;;4.73;1.87;;;;;;;36.84;24.36;96283.56;10465382;28;20441;-72
2022/07/20 15:25:21;;;;;;;7.38;1.80;;;;;;;36.65;24.78;96289.53;10468672;28;20433;-73
2022/07/20 15:30:21;;;;;;;4.20;1.73;;;;;;;34.83;26.93;96268.50;10465749;28;20210;-72
2022/07/20 15:35:22;;;;;;;11.73;2.20;;;;;;;33.90;28.46;96281.50;10482511;28;20975;-72
2022/07/20 15:40:22;;;;;;;3.77;1.73;;;;;;;34.23;27.43;96270.13;10489161;28;20433;-72
2022/07/20 15:45:23;;;;;;;5.20;2.08;;;;;;;34.45;27.24;96277.38;10473025;28;20426;-72
2022/07/20 15:50:23;;;;;;;4.40;2.13;;;;;;;34.58;27.87;96292.72;10465173;28;20295;-72
2022/07/20 15:55:24;;;;;;;6.85;1.75;;;;;;;35.01;26.85;96289.09;10463255;28;20868;-73
2022/07/20 16:00:25;;;;;;;6.75;1.90;;;;;;;35.79;26.87;96332.69;10460345;28;20258;-73
2022/07/20 16:05:26;;;;;;;9.18;1.88;;;;;;;34.07;28.12;96302.44;10444692;28;20724;-73
2022/07/20 16:10:28;;;;;;;8.07;1.90;;;;;;;33.95;28.31;96289.50;10445205;28;20227;-72
2022/07/20 16:15:28;;;;;;;4.97;1.80;;;;;;;33.70;28.49;96299.19;10448797;28;20192;-73
2022/07/20 16:20:29;;;;;;;9.17;2.07;;;;;;;33.26;30.07;96328.91;10449444;28;20200;-72
2022/07/20 16:25:29;;;;;;;10.50;1.90;;;;;;;33.03;29.72;96328.13;10448765;28;20437;-72
2022/07/20 16:30:30;;;;;;;3.38;2.00;;;;;;;32.47;30.75;96333.81;10448927;28;20326;-72
2022/07/20 16:35:30;;;;;;;6.97;2.30;;;;;;;32.46;30.96;96340.34;10448896;28;20187;-72
2022/07/20 16:40:30;;;;;;;4.38;2.13;;;;;;;32.19;31.20;96324.97;10448407;28;20180;-72
2022/07/20 16:45:31;;;;;;;4.55;1.92;;;;;;;32.42;31.03;96317.69;10451701;28;20660;-72
2022/07/20 16:50:32;;;;;;;8.00;1.83;;;;;;;32.41;31.23;96323.41;10436732;28;20661;-72
2022/07/20 16:55:32;;;;;;;5.05;2.33;;;;;;;31.91;31.76;96319.59;10454856;28;20442;-72
2022/07/20 17:00:33;;;;;;;7.70;1.90;;;;;;;31.83;31.00;96296.72;10454792;28;20184;-72
2022/07/20 17:05:33;;;;;;;8.25;2.15;;;;;;;31.82;32.04;96329.53;10454892;28;20846;-72
2022/07/20 17:10:35;;;;;;;3.40;2.05;;;;;;;32.27;31.10;96328.88;10453636;28;20653;-72
2022/07/20 17:15:36;;;;;;;10.33;2.20;;;;;;;32.14;31.33;96316.97;10455120;28;20199;-72
2022/07/20 17:20:36;;;;;;;5.63;2.03;;;;;;;32.15;30.93;96316.66;10453521;28;21064;-72
2022/07/20 17:25:37;;;;;;;3.90;2.40;;;;;;;31.91;31.85;96319.59;10454078;28;20196;-72
2022/07/20 17:30:38;;;;;;;4.30;2.10;;;;;;;31.96;32.27;96338.47;10453581;28;20304;-72
2022/07/20 17:35:38;;;;;;;6.28;2.20;;;;;;;31.80;32.29;96334.47;10452989;28;20537;-72
2022/07/20 17:40:39;;;;;;;7.73;1.97;;;;;;;31.68;32.85;96331.47;10453563;28;20190;-72
2022/07/20 17:45:41;;;;;;;4.63;2.00;;;;;;;31.80;33.12;96358.84;10452973;28;20442;-72
2022/07/20 17:50:41;;;;;;;4.63;2.13;;;;;;;31.59;33.28;96353.03;10453226;28;20232;-72
2022/07/20 17:55:42;;;;;;;7.15;2.45;;;;;;;31.38;33.68;96360.72;10452497;28;20192;-72
2022/07/20 18:00:42;;;;;;;7.47;2.40;;;;;;;31.18;33.82;96351.91;10453779;28;20184;-72
2022/07/20 18:05:43;;;;;;;9.00;2.30;;;;;;;30.98;34.75;96372.00;10453710;28;20208;-73
2022/07/20 18:10:43;;;;;;;8.02;2.38;;;;;;;31.07;34.71;96372.09;10452876;28;20211;-72
2022/07/20 18:15:44;;;;;;;5.25;2.15;;;;;;;30.78;35.30;96389.31;10453743;28;20667;-72
2022/07/20 18:20:44;;;;;;;2.87;2.13;;;;;;;30.76;35.21;96389.59;10452620;28;20199;-71
2022/07/20 18:25:45;;;;;;;4.97;2.60;;;;;;;30.48;37.13;96433.84;10453500;28;20458;-71
2022/07/20 18:30:45;;;;;;;6.70;2.30;;;;;;;30.34;36.52;96417.53;10452649;28;20478;-71
2022/07/20 18:35:46;;;;;;;4.47;2.25;;;;;;;30.15;37.61;96453.41;10451718;28;20261;-71
2022/07/20 18:40:46;;;;;;;10.38;2.70;;;;;;;29.92;39.30;96484.75;10452487;28;20200;-71
2022/07/20 18:45:58;;;;;;;4.35;2.45;;;;;;;29.08;41.04;96511.91;10452006;28;20192;-71
2022/07/20 18:50:59;;;;;;;12.13;2.42;;;;;;;28.74;42.96;96548.50;10451655;28;20715;-71
2022/07/20 18:56:00;;;;;;;7.70;2.42;;;;;;;27.95;44.88;96583.19;10451607;28;20191;-71
2022/07/20 19:01:00;;;;;;;4.32;2.28;;;;;;;27.42;46.44;96623.03;10451253;28;20199;-71
2022/07/20 19:06:03;;;;;;;10.30;2.42;;;;;;;26.65;47.71;96626.25;10451496;28;20214;-71
2022/07/20 19:11:05;;;;;;;6.40;2.63;;;;;;;25.61;50.59;96658.78;10450519;28;20312;-71
2022/07/20 19:16:05;;;;;;;11.45;2.35;;;;;;;25.54;51.48;96666.22;10450678;28;20241;-72
2022/07/20 19:21:06;;;;;;;4.15;2.45;;;;;;;25.12;52.78;96664.16;10450973;28;20214;-73
2022/07/20 19:26:06;;;;;;;7.38;2.33;;;;;;;24.22;54.67;96689.19;10450273;28;20628;-71
2022/07/20 19:31:07;;;;;;;6.88;2.78;;;;;;;24.35;54.98;96701.41;10450574;28;20639;-71
2022/07/20 19:36:08;;;;;;;5.88;2.88;;;;;;;24.31;55.48;96686.91;10449291;28;20789;-71
2022/07/20 19:41:08;;;;;;;6.43;3.08;;;;;;;24.01;55.81;96674.66;10450843;28;20274;-72
2022/07/20 19:46:10;;;;;;;5.03;2.67;;;;;;;23.91;56.36;96674.53;10451228;28;20290;-72
2022/07/20 19:51:10;;;;;;;8.85;3.58;;;;;;;23.77;56.88;96687.38;10451362;28;20225;-72
2022/07/20 19:56:13;;;;;;;9.65;3.15;;;;;;;23.43;57.90;96690.78;10441197;28;20189;-72
2022/07/20 20:01:13;;;;;;;11.38;3.05;;;;;;;22.93;58.65;96684.19;10467933;28;20222;-71
2022/07/20 20:06:15;;;;;;;4.18;2.97;;;;;;;23.01;58.64;96674.97;10474310;28;20321;-71
2022/07/20 20:11:15;;;;;;;9.73;3.33;;;;;;;23.22;57.74;96657.50;10489493;28;20258;-71
2022/07/20 20:16:16;;;;;;;6.13;3.10;;;;;;;23.16;57.85;96658.47;10471663;28;20230;-71
2022/07/20 20:21:16;;;;;;;6.28;2.80;;;;;;;23.08;58.48;96656.16;10466692;28;20249;-71
2022/07/20 20:26:16;;;;;;;7.25;3.50;;;;;;;22.93;58.26;96648.66;10471819;28;20195;-72
2022/07/20 20:31:17;;;;;;;9.70;3.00;;;;;;;22.85;57.94;96640.97;10488394;28;20275;-71
2022/07/20 20:36:17;;;;;;;8.18;3.22;;;;;;;22.89;57.59;96623.44;10469884;28;20188;-72
2022/07/20 20:41:17;;;;;;;8.85;3.50;;;;;;;22.97;56.50;96601.69;10488863;28;20236;-71
2022/07/20 20:46:18;;;;;;;5.38;3.28;;;;;;;23.13;55.76;96603.63;10487436;28;20278;-72
2022/07/20 20:51:18;;;;;;;7.55;2.88;;;;;;;23.17;55.36;96584.44;10489231;28;20218;-72
2022/07/20 20:56:19;;;;;;;8.10;2.90;;;;;;;23.36;54.31;96580.50;10488446;28;20270;-72
2022/07/20 21:01:19;;;;;;;4.60;2.95;;;;;;;23.57;53.25;96564.78;10488198;28;20203;-71
2022/07/20 21:06:21;;;;;;;4.88;2.80;;;;;;;23.66;52.55;96548.13;10488137;28;20247;-71
2022/07/20 21:11:23;;;;;;;6.65;3.10;;;;;;;23.71;51.89;96534.00;10488250;28;20732;-71
2022/07/20 21:16:25;;;;;;;4.95;3.00;;;;;;;23.84;51.08;96520.31;10487864;28;20199;-71
2022/07/20 21:21:25;;;;;;;5.40;2.72;;;;;;;23.97;50.59;96519.16;10488415;28;20226;-71
2022/07/20 21:26:25;;;;;;;4.28;2.58;;;;;;;24.02;50.45;96510.38;10487847;28;20258;-71
2022/07/20 21:31:26;;;;;;;6.53;2.50;;;;;;;24.03;50.23;96515.50;10489827;28;20223;-71
2022/07/20 21:36:26;;;;;;;4.30;2.80;;;;;;;23.87;50.56;96527.03;10495257;28;20558;-71
2022/07/20 21:41:27;;;;;;;5.85;3.13;;;;;;;23.64;51.59;96557.41;10495662;28;20195;-71
2022/07/20 21:46:27;;;;;;;7.47;2.97;;;;;;;23.39;52.45;96573.88;10496384;28;20187;-71
2022/07/20 21:51:28;;;;;;;7.32;3.30;;;;;;;23.29;52.81;96580.69;10496353;28;20711;-71
2022/07/20 21:56:28;;;;;;;6.88;3.33;;;;;;;23.05;53.25;96590.63;10495779;28;20190;-71
2022/07/20 22:01:28;;;;;;;7.18;2.75;;;;;;;22.89;53.58;96604.75;10496169;28;20183;-71
2022/07/20 22:06:29;;;;;;;7.28;2.72;;;;;;;22.79;54.08;96616.06;10494968;28;20333;-71
2022/07/20 22:11:29;;;;;;;7.25;2.80;;;;;;;22.80;53.79;96597.13;10495692;28;20218;-71
2022/07/20 22:16:30;;;;;;;6.63;3.00;;;;;;;22.74;53.79;96590.06;10494516;28;20206;-71
2022/07/20 22:21:30;;;;;;;7.43;2.95;;;;;;;22.62;54.29;96589.28;10495381;28;20180;-71
2022/07/20 22:26:31;;;;;;;5.95;2.38;;;;;;;22.63;54.06;96582.88;10494354;28;20202;-71
2022/07/20 22:31:31;;;;;;;4.90;2.70;;;;;;;22.97;52.45;96554.41;10494564;28;20215;-71
2022/07/20 22:36:31;;;;;;;4.63;2.25;;;;;;;23.49;50.63;96513.34;10493976;28;20289;-71
2022/07/20 22:41:32;;;;;;;5.65;2.28;;;;;;;23.93;48.79;96490.47;10493393;28;20261;-71
2022/07/20 22:46:32;;;;;;;4.63;2.80;;;;;;;24.25;47.55;96476.41;10493279;28;20179;-71
2022/07/20 22:51:33;;;;;;;3.95;2.40;;;;;;;24.54;46.93;96463.59;10493948;28;20303;-71
2022/07/20 22:56:33;;;;;;;5.60;2.25;;;;;;;24.51;46.74;96462.22;10492894;28;20203;-71
2022/07/20 23:01:33;;;;;;;9.48;2.45;;;;;;;24.24;47.70;96486.28;10493738;28;20730;-71
2022/07/20 23:06:34;;;;;;;9.00;2.40;;;;;;;24.16;47.54;96473.34;10492582;28;20645;-71
2022/07/20 23:11:34;;;;;;;4.10;2.42;;;;;;;24.07;47.73;96446.22;10492828;28;20753;-71
2022/07/20 23:16:35;;;;;;;17.02;2.92;;;;;;;24.00;47.75;96440.25;10492436;28;20202;-71
2022/07/20 23:21:35;;;;;;;7.82;2.95;;;;;;;23.78;48.55;96454.41;10492627;28;20191;-71
2022/07/20 23:26:36;;;;;;;10.23;2.90;;;;;;;23.66;49.45;96464.38;10492010;28;20362;-71
2022/07/20 23:31:36;;;;;;;5.28;2.17;;;;;;;23.51;48.84;96444.41;10492009;28;20218;-71